createdAt,value
2022-10-19T00:02:11.489Z,100.00
2022-10-19T00:05:18.247Z,100.00
2022-10-19T00:08:24.917Z,100.00
2022-10-19T00:11:32.619Z,100.00
2022-10-19T00:14:39.344Z,100.00
2022-10-19T00:17:45.815Z,100.00
2022-10-19T00:20:52.581Z,100.00
2022-10-19T00:23:59.371Z,100.00
2022-10-19T00:27:06.383Z,100.00
2022-10-19T00:30:13.468Z,100.00
2022-10-19T00:33:22.420Z,100.00
2022-10-19T00:36:32.182Z,100.00
2022-10-19T00:39:39.295Z,100.00
2022-10-19T00:42:46.120Z,100.00
2022-10-19T00:45:56.138Z,100.00
2022-10-19T00:49:09.894Z,100.00
2022-10-19T00:52:22.348Z,100.00
2022-10-19T00:55:29.121Z,100.00
2022-10-19T00:58:35.880Z,100.00
2022-10-19T01:01:43.591Z,100.00
2022-10-19T01:04:52.970Z,100.00
2022-10-19T01:08:00.442Z,100.00
2022-10-19T01:11:23.731Z,100.00
2022-10-19T01:14:45.617Z,100.00
2022-10-19T01:18:02.574Z,100.00
2022-10-19T01:21:20.142Z,100.00
2022-10-19T01:24:57.855Z,100.00
2022-10-19T01:28:19.233Z,100.00
2022-10-19T01:31:36.263Z,100.00
2022-10-19T01:34:50.061Z,100.00
2022-10-19T01:38:05.529Z,100.00
2022-10-19T01:41:19.531Z,100.00
2022-10-19T01:44:30.978Z,100.00
2022-10-19T01:47:42.546Z,100.00
2022-10-19T01:50:55.656Z,100.00
2022-10-19T01:54:06.718Z,100.00
2022-10-19T01:57:18.486Z,100.00
2022-10-19T02:00:27.147Z,100.00
2022-10-19T02:03:35.096Z,100.00
2022-10-19T02:06:42.267Z,100.00
2022-10-19T02:09:48.912Z,100.00
2022-10-19T02:12:57.293Z,100.00
2022-10-19T02:16:08.399Z,100.00
2022-10-19T02:19:16.910Z,100.00
2022-10-19T02:22:23.639Z,100.00
2022-10-19T02:25:30.364Z,100.00
2022-10-19T02:28:37.973Z,100.00
2022-10-19T02:31:45.438Z,100.00
2022-10-19T02:34:52.254Z,100.00
2022-10-19T02:38:02.789Z,100.00
2022-10-19T02:41:16.910Z,100.00
2022-10-19T02:44:28.308Z,100.00
2022-10-19T02:47:39.745Z,100.00
2022-10-19T02:50:48.588Z,100.00
2022-10-19T02:53:55.338Z,100.00
2022-10-19T02:57:02.165Z,100.00
2022-10-19T03:00:10.964Z,100.00
2022-10-19T03:03:17.642Z,100.00
2022-10-19T03:06:24.315Z,100.00
2022-10-19T03:09:31.006Z,100.00
2022-10-19T03:12:37.608Z,100.00
2022-10-19T03:15:44.305Z,100.00
2022-10-19T03:18:52.482Z,100.00
2022-10-19T03:21:59.193Z,100.00
2022-10-19T03:25:06.255Z,100.00
2022-10-19T03:28:12.894Z,100.00
2022-10-19T03:31:20.034Z,100.00
2022-10-19T03:34:26.617Z,100.00
2022-10-19T03:37:33.416Z,100.00
2022-10-19T03:40:40.341Z,100.00
2022-10-19T03:43:47.189Z,100.00
2022-10-19T03:46:53.780Z,100.00
2022-10-19T03:50:00.599Z,100.00
2022-10-19T03:53:07.269Z,100.00
2022-10-19T03:56:16.707Z,100.00
2022-10-19T03:59:23.064Z,100.00
2022-10-19T04:02:31.421Z,100.00
2022-10-19T04:05:37.931Z,100.00
2022-10-19T04:08:45.384Z,100.00
2022-10-19T04:11:52.480Z,100.00
2022-10-19T04:14:59.331Z,100.00
2022-10-19T04:18:06.090Z,100.00
2022-10-19T04:21:24.166Z,100.00
2022-10-19T04:24:30.891Z,100.00
2022-10-19T04:27:37.495Z,100.00
2022-10-19T04:30:44.207Z,100.00
2022-10-19T04:33:50.808Z,100.00
2022-10-19T04:36:59.651Z,100.00
2022-10-19T04:40:12.839Z,100.00
2022-10-19T04:43:21.792Z,100.00
2022-10-19T04:46:29.712Z,100.00
2022-10-19T04:49:36.275Z,100.00
2022-10-19T04:52:45.112Z,100.00
2022-10-19T04:55:51.647Z,100.00
2022-10-19T04:58:59.854Z,100.00
2022-10-19T05:02:06.747Z,100.00
2022-10-19T05:05:13.767Z,100.00
2022-10-19T05:08:20.432Z,100.00
2022-10-19T05:11:27.704Z,100.00
2022-10-19T05:14:37.832Z,100.00
2022-10-19T05:17:47.185Z,100.00
2022-10-19T05:21:01.004Z,100.00
2022-10-19T05:24:07.844Z,100.00
2022-10-19T05:27:14.412Z,100.00
2022-10-19T05:30:21.834Z,100.00
2022-10-19T05:33:28.500Z,100.00
2022-10-19T05:36:37.039Z,100.00
2022-10-19T05:39:43.930Z,100.00
2022-10-19T05:42:50.498Z,100.00
2022-10-19T05:45:57.383Z,100.00
2022-10-19T05:49:04.491Z,100.00
2022-10-19T05:52:11.043Z,100.00
2022-10-19T05:55:17.864Z,100.00
2022-10-19T05:58:25.142Z,100.00
2022-10-19T06:01:33.380Z,100.00
2022-10-19T06:04:40.199Z,100.00
2022-10-19T06:07:46.778Z,100.00
2022-10-19T06:10:53.884Z,100.00
2022-10-19T06:14:02.589Z,100.00
2022-10-19T06:17:09.345Z,100.00
2022-10-19T06:20:16.193Z,100.00
2022-10-19T06:23:22.866Z,100.00
2022-10-19T06:26:30.847Z,100.00
2022-10-19T06:29:38.022Z,100.00
2022-10-19T06:32:44.878Z,100.00
2022-10-19T06:35:51.775Z,100.00
2022-10-19T06:38:59.900Z,100.00
2022-10-19T06:42:06.706Z,100.00
2022-10-19T06:45:14.837Z,100.00
2022-10-19T06:48:22.006Z,100.00
2022-10-19T06:51:32.068Z,100.00
2022-10-19T06:54:38.775Z,100.00
2022-10-19T06:57:45.777Z,100.00
2022-10-19T07:00:58.295Z,100.00
2022-10-19T07:04:05.181Z,100.00
2022-10-19T07:07:11.944Z,100.00
2022-10-19T07:10:18.794Z,100.00
2022-10-19T07:13:25.739Z,100.00
2022-10-19T07:16:32.390Z,100.00
2022-10-19T07:19:39.467Z,100.00
2022-10-19T07:22:46.113Z,100.00
2022-10-19T07:25:54.018Z,100.00
2022-10-19T07:29:01.231Z,100.00
2022-10-19T07:32:08.246Z,100.00
2022-10-19T07:35:14.996Z,100.00
2022-10-19T07:38:21.589Z,100.00
2022-10-19T07:41:28.494Z,100.00
2022-10-19T07:44:35.259Z,100.00
2022-10-19T07:47:42.076Z,100.00
2022-10-19T07:50:51.485Z,100.00
2022-10-19T07:53:56.560Z,100.00
2022-10-19T07:57:03.194Z,100.00
2022-10-19T08:00:12.690Z,100.00
2022-10-19T08:03:57.637Z,100.00
2022-10-19T08:06:46.199Z,100.00
2022-10-19T08:09:54.131Z,100.00
2022-10-19T08:13:01.243Z,100.00
2022-10-19T08:16:20.997Z,100.00
2022-10-19T08:19:26.064Z,100.00
2022-10-19T08:22:33.079Z,100.00
2022-10-19T08:25:39.825Z,100.00
2022-10-19T08:28:46.685Z,100.00
2022-10-19T08:31:53.451Z,100.00
2022-10-19T08:35:00.111Z,100.00
2022-10-19T08:38:07.091Z,100.00
2022-10-19T08:41:24.285Z,100.00
2022-10-19T08:44:48.765Z,100.00
2022-10-19T08:48:08.088Z,100.00
2022-10-19T08:51:14.738Z,100.00
2022-10-19T08:54:22.036Z,100.00
2022-10-19T08:57:40.181Z,100.00
2022-10-19T09:00:52.270Z,100.00
2022-10-19T09:04:03.616Z,100.00
2022-10-19T09:07:32.723Z,100.00
2022-10-19T09:10:41.878Z,100.00
2022-10-19T09:14:05.991Z,100.00
2022-10-19T09:17:17.000Z,100.00
2022-10-19T09:20:28.254Z,99.98
2022-10-19T09:23:40.753Z,100.00
2022-10-19T09:26:53.469Z,99.95
2022-10-19T09:30:03.772Z,97.99
2022-10-19T09:33:17.240Z,95.79
2022-10-19T09:36:39.380Z,94.49
2022-10-19T09:39:54.845Z,92.13
2022-10-19T09:43:09.003Z,91.11
2022-10-19T09:46:27.373Z,90.10
2022-10-19T09:49:45.097Z,89.43
2022-10-19T09:52:53.691Z,89.86
2022-10-19T09:56:06.234Z,90.06
2022-10-19T09:59:24.251Z,89.35
2022-10-19T10:02:34.916Z,88.99
2022-10-19T10:05:48.676Z,90.37
2022-10-19T10:08:59.010Z,92.33
2022-10-19T10:12:09.080Z,93.56
2022-10-19T10:15:20.901Z,94.29
2022-10-19T10:18:29.813Z,94.90
2022-10-19T10:21:47.250Z,95.07
2022-10-19T10:24:57.491Z,95.58
2022-10-19T10:28:18.238Z,97.38
2022-10-19T10:31:28.680Z,97.24
2022-10-19T10:34:58.539Z,98.10
2022-10-19T10:38:13.824Z,98.68
2022-10-19T10:41:24.138Z,99.72
2022-10-19T10:44:35.167Z,100.00
2022-10-19T10:47:48.219Z,100.00
2022-10-19T10:50:55.379Z,100.00
2022-10-19T10:54:16.948Z,100.00
2022-10-19T10:57:26.659Z,99.59
2022-10-19T11:00:35.490Z,98.69
2022-10-19T11:03:51.643Z,98.92
2022-10-19T11:07:02.967Z,99.05
2022-10-19T11:10:21.274Z,98.45
2022-10-19T11:13:34.417Z,98.41
2022-10-19T11:16:46.476Z,98.35
2022-10-19T11:19:53.805Z,97.13
2022-10-19T11:23:12.214Z,97.92
2022-10-19T11:26:27.685Z,97.22
2022-10-19T11:29:49.982Z,97.49
2022-10-19T11:33:07.929Z,96.83
2022-10-19T11:36:26.058Z,94.02
2022-10-19T11:39:42.867Z,94.85
2022-10-19T11:43:02.761Z,94.72
2022-10-19T11:46:15.797Z,92.27
2022-10-19T11:49:38.615Z,90.45
2022-10-19T11:52:54.276Z,89.83
2022-10-19T11:56:09.090Z,87.96
2022-10-19T11:59:28.532Z,86.13
2022-10-19T12:03:00.361Z,85.92
2022-10-19T12:06:18.415Z,86.14
2022-10-19T12:09:40.627Z,85.29
2022-10-19T12:12:50.231Z,86.35
2022-10-19T12:16:00.521Z,85.64
2022-10-19T12:19:14.021Z,81.93
2022-10-19T12:22:23.571Z,77.02
2022-10-19T12:25:30.496Z,73.91
2022-10-19T12:28:40.001Z,73.15
2022-10-19T12:31:49.215Z,73.50
2022-10-19T12:35:03.396Z,72.76
2022-10-19T12:38:16.865Z,73.56
2022-10-19T12:41:32.411Z,73.11
2022-10-19T12:45:03.671Z,72.45
2022-10-19T12:48:25.508Z,71.22
2022-10-19T12:51:45.617Z,72.31
2022-10-19T12:54:52.551Z,71.70
2022-10-19T12:58:06.234Z,71.37
2022-10-19T13:01:19.078Z,71.52
2022-10-19T13:04:28.698Z,73.01
2022-10-19T13:07:37.883Z,72.24
2022-10-19T13:11:09.976Z,71.08
2022-10-19T13:14:44.139Z,69.58
2022-10-19T13:17:52.004Z,69.94
2022-10-19T13:21:00.443Z,69.36
2022-10-19T13:24:29.733Z,69.03
2022-10-19T13:27:40.495Z,67.88
2022-10-19T13:31:09.351Z,66.53
2022-10-19T13:34:18.249Z,66.52
2022-10-19T13:37:24.984Z,64.62
2022-10-19T13:40:33.517Z,65.85
2022-10-19T13:43:52.401Z,66.98
2022-10-19T13:47:25.414Z,68.10
2022-10-19T13:50:42.609Z,67.88
2022-10-19T13:54:01.226Z,68.48
2022-10-19T13:57:24.295Z,68.71
2022-10-19T14:00:35.769Z,68.32
2022-10-19T14:03:57.093Z,68.06
2022-10-19T14:07:12.278Z,68.25
2022-10-19T14:10:22.782Z,67.53
2022-10-19T14:13:36.237Z,64.25
2022-10-19T14:16:56.038Z,63.78
2022-10-19T14:20:25.035Z,62.26
2022-10-19T14:23:34.436Z,62.20
2022-10-19T14:26:41.255Z,60.44
2022-10-19T14:29:50.258Z,59.94
2022-10-19T14:33:01.132Z,58.86
2022-10-19T14:36:17.304Z,57.90
2022-10-19T14:39:33.542Z,58.78
2022-10-19T14:42:43.765Z,59.40
2022-10-19T14:46:10.192Z,59.88
2022-10-19T14:49:17.001Z,61.36
2022-10-19T14:52:29.274Z,62.39
2022-10-19T14:55:40.539Z,61.99
2022-10-19T14:58:53.988Z,61.96
2022-10-19T15:02:03.638Z,61.87
2022-10-19T15:05:22.251Z,61.41
2022-10-19T15:08:40.380Z,61.22
2022-10-19T15:11:50.032Z,61.25
2022-10-19T15:14:58.562Z,60.27
2022-10-19T15:18:13.173Z,60.72
2022-10-19T15:21:23.638Z,60.88
2022-10-19T15:24:30.734Z,62.05
2022-10-19T15:27:39.404Z,62.71
2022-10-19T15:30:46.643Z,63.67
2022-10-19T15:33:55.050Z,64.42
2022-10-19T15:37:03.580Z,65.23
2022-10-19T15:40:21.203Z,66.26
2022-10-19T15:43:38.847Z,66.88
2022-10-19T15:47:23.410Z,67.77
2022-10-19T15:50:38.542Z,68.86
2022-10-19T15:53:45.285Z,69.41
2022-10-19T15:56:56.455Z,70.19
2022-10-19T16:00:09.247Z,70.80
2022-10-19T16:03:16.445Z,71.46
2022-10-19T16:06:26.011Z,71.98
2022-10-19T16:09:32.857Z,72.50
2022-10-19T16:12:39.608Z,73.10
2022-10-19T16:15:50.010Z,73.44
2022-10-19T16:19:04.777Z,73.87
2022-10-19T16:22:11.546Z,74.35
2022-10-19T16:25:21.192Z,74.91
2022-10-19T16:28:27.919Z,75.35
2022-10-19T16:31:34.562Z,75.80
2022-10-19T16:34:41.464Z,76.10
2022-10-19T16:37:48.182Z,76.61
2022-10-19T16:40:55.008Z,77.23
2022-10-19T16:44:01.656Z,77.98
2022-10-19T16:47:08.231Z,78.15
2022-10-19T16:50:14.779Z,78.42
2022-10-19T16:53:21.304Z,78.29
2022-10-19T16:56:30.719Z,78.40
2022-10-19T16:59:37.514Z,78.56
2022-10-19T17:02:45.832Z,78.90
2022-10-19T17:05:53.503Z,79.10
2022-10-19T17:12:28.019Z,79.68
2022-10-19T17:15:43.052Z,79.66
2022-10-19T17:18:52.380Z,80.17
2022-10-19T17:21:59.684Z,80.33
2022-10-19T17:25:07.308Z,80.56
2022-10-19T17:28:13.946Z,80.79
2022-10-19T17:31:20.660Z,81.43
2022-10-19T17:34:28.532Z,81.56
2022-10-19T17:37:35.705Z,81.78
2022-10-19T17:40:43.050Z,82.14
2022-10-19T17:43:51.868Z,82.39
2022-10-19T17:46:58.628Z,82.83
2022-10-19T17:50:05.705Z,83.24
2022-10-19T17:53:12.335Z,83.49
2022-10-19T17:56:21.076Z,83.73
2022-10-19T17:59:34.838Z,84.26
2022-10-19T18:02:44.462Z,84.82
2022-10-19T18:06:00.873Z,85.26
2022-10-19T18:09:10.271Z,85.94
2022-10-19T18:12:16.785Z,86.04
2022-10-19T18:15:23.518Z,86.45
2022-10-19T18:18:32.013Z,86.81
2022-10-19T18:21:41.014Z,87.43
2022-10-19T18:24:47.908Z,87.79
2022-10-19T18:27:54.612Z,88.29
2022-10-19T18:31:07.573Z,88.98
2022-10-19T18:34:16.131Z,89.10
2022-10-19T18:37:22.877Z,89.44
2022-10-19T18:40:29.533Z,89.90
2022-10-19T18:43:36.211Z,90.33
2022-10-19T18:46:43.288Z,90.29
2022-10-19T18:49:49.913Z,90.64
2022-10-19T18:52:56.468Z,91.06
2022-10-19T18:56:05.019Z,91.28
2022-10-19T18:59:11.636Z,91.47
2022-10-19T19:02:22.668Z,91.70
2022-10-19T19:05:35.985Z,91.57
2022-10-19T19:11:58.076Z,91.00
2022-10-19T19:15:08.200Z,90.69
2022-10-19T19:18:14.830Z,90.92
2022-10-19T19:21:23.523Z,90.91
2022-10-19T19:24:32.206Z,91.09
2022-10-19T19:30:50.803Z,91.79
2022-10-19T19:33:57.387Z,91.66
2022-10-19T19:37:07.411Z,92.05
2022-10-19T19:40:17.885Z,92.07
2022-10-19T19:43:25.582Z,92.23
2022-10-19T19:46:32.347Z,92.50
2022-10-19T19:49:39.065Z,92.94
2022-10-19T19:52:45.757Z,93.07
2022-10-19T19:55:52.855Z,93.08
2022-10-19T19:59:03.454Z,93.13
2022-10-19T20:02:12.133Z,93.10
2022-10-19T20:05:18.796Z,93.36
2022-10-19T20:08:26.514Z,93.47
2022-10-19T20:11:33.990Z,93.67
2022-10-19T20:14:42.606Z,93.91
2022-10-19T20:17:49.468Z,94.10
2022-10-19T20:20:56.008Z,94.42
2022-10-19T20:24:03.143Z,94.45
2022-10-19T20:27:09.889Z,94.61
2022-10-19T20:30:16.601Z,94.94
2022-10-19T20:33:23.373Z,95.11
2022-10-19T20:36:29.942Z,95.55
2022-10-19T20:39:36.636Z,96.25
2022-10-19T20:42:44.126Z,96.91
2022-10-19T20:45:50.804Z,97.23
2022-10-19T20:48:59.668Z,97.39
2022-10-19T20:52:06.535Z,97.57
2022-10-19T20:55:13.448Z,97.96
2022-10-19T20:58:20.056Z,98.16
2022-10-19T21:01:27.403Z,98.37
2022-10-19T21:04:35.660Z,98.84
2022-10-19T21:07:42.280Z,99.11
2022-10-19T21:10:49.079Z,99.79
2022-10-19T21:13:58.585Z,99.98
2022-10-19T21:17:05.375Z,99.72
2022-10-19T21:20:12.673Z,99.84
2022-10-19T21:23:19.304Z,99.75
2022-10-19T21:26:27.524Z,99.25
2022-10-19T21:29:34.228Z,99.64
2022-10-19T21:32:40.827Z,100.00
2022-10-19T21:35:47.516Z,100.00
2022-10-19T21:38:54.410Z,100.00
2022-10-19T21:42:00.923Z,100.00
2022-10-19T21:45:29.392Z,100.00
2022-10-19T21:48:36.660Z,100.00
2022-10-19T21:51:45.779Z,100.00
2022-10-19T21:54:54.298Z,100.00
2022-10-19T21:58:01.204Z,100.00
2022-10-19T22:01:08.988Z,100.00
2022-10-19T22:04:18.215Z,100.00
2022-10-19T22:07:24.875Z,100.00
2022-10-19T22:10:31.490Z,100.00
2022-10-19T22:13:38.895Z,100.00
2022-10-19T22:16:45.472Z,100.00
2022-10-19T22:19:53.340Z,100.00
2022-10-19T22:22:59.859Z,100.00
2022-10-19T22:26:14.652Z,100.00
2022-10-19T22:29:21.667Z,100.00
2022-10-19T22:32:28.240Z,100.00
2022-10-19T22:35:34.806Z,100.00
2022-10-19T22:38:42.198Z,100.00
2022-10-19T22:41:48.695Z,100.00
2022-10-19T22:44:55.244Z,100.00
2022-10-19T22:48:01.858Z,100.00
2022-10-19T22:51:08.686Z,100.00
2022-10-19T22:54:15.443Z,100.00
2022-10-19T22:57:22.067Z,100.00
2022-10-19T23:00:29.075Z,100.00
2022-10-19T23:03:37.682Z,100.00
2022-10-19T23:06:44.491Z,100.00
2022-10-19T23:09:51.112Z,100.00
2022-10-19T23:12:57.741Z,100.00
2022-10-19T23:16:04.400Z,100.00
2022-10-19T23:19:11.149Z,100.00
2022-10-19T23:22:17.671Z,100.00
2022-10-19T23:25:24.303Z,100.00
2022-10-19T23:28:32.825Z,100.00
2022-10-19T23:31:39.565Z,100.00
2022-10-19T23:34:48.391Z,100.00
2022-10-19T23:37:55.592Z,100.00
2022-10-19T23:41:02.576Z,100.00
2022-10-19T23:44:10.422Z,100.00
2022-10-19T23:47:17.003Z,100.00
2022-10-19T23:50:23.796Z,100.00
2022-10-19T23:53:34.644Z,100.00
2022-10-19T23:56:43.689Z,100.00
2022-10-19T23:59:50.736Z,100.00
